Time;durP1;ratioP1;P1;durP2;ratioP2;P2;SDS_P1;SDS_P2;PMS_P1;PMS_P2;Temp;Humidity;BMP_temperature;BMP_pressure;BME280_temperature;BME280_humidity;BME280_pressure;Samples;Min_cycle;Max_cycle;Signal;HPM_P1;HPM_P2
2023/03/14 00:00:35;;;;;;;7.22;1.23;;;9.50;99.90;;;;;;5090373;28;20063;-72
2023/03/14 00:03:01;;;;;;;5.72;1.10;;;9.50;99.90;;;;;;5064427;28;20037;-72
2023/03/14 00:05:26;;;;;;;4.35;1.23;;;9.60;99.90;;;;;;5066878;28;20496;-72
2023/03/14 00:07:52;;;;;;;4.35;0.93;;;9.60;99.90;;;;;;5050743;28;20032;-72
2023/03/14 00:10:18;;;;;;;6.00;1.90;;;9.60;99.90;;;;;;5075227;28;20050;-72
2023/03/14 00:12:44;;;;;;;4.85;1.40;;;9.60;99.90;;;;;;5067869;28;21981;-72
2023/03/14 00:15:10;;;;;;;7.20;1.10;;;9.70;99.90;;;;;;5066310;28;20048;-72
2023/03/14 00:17:36;;;;;;;4.97;1.25;;;9.70;99.90;;;;;;5067960;28;20077;-72
2023/03/14 00:20:07;;;;;;;5.28;1.20;;;9.70;99.90;;;;;;5070034;28;20041;-72
2023/03/14 00:22:35;;;;;;;9.32;1.30;;;9.70;99.90;;;;;;5054391;28;20047;-72
2023/03/14 00:25:01;;;;;;;5.85;1.45;;;9.80;99.90;;;;;;5069417;28;20052;-72
2023/03/14 00:27:26;;;;;;;12.32;1.38;;;9.80;99.90;;;;;;5070898;28;20139;-72
2023/03/14 00:29:52;;;;;;;3.83;1.23;;;9.90;99.90;;;;;;5106050;27;20032;-72
2023/03/14 00:32:17;;;;;;;6.90;1.20;;;9.90;99.90;;;;;;5074105;28;20546;-72
2023/03/14 00:34:43;;;;;;;4.70;1.30;;;9.90;99.90;;;;;;5072380;28;20032;-72
2023/03/14 00:37:09;;;;;;;6.18;0.88;;;9.90;99.90;;;;;;5077667;28;20048;-72
2023/03/14 00:39:34;;;;;;;4.55;0.82;;;9.90;99.90;;;;;;5071041;28;20078;-72
2023/03/14 00:42:00;;;;;;;6.13;1.10;;;9.90;99.90;;;;;;5107636;27;21590;-72
2023/03/14 00:44:26;;;;;;;4.70;1.25;;;9.90;99.90;;;;;;5071409;28;20035;-72
2023/03/14 00:46:51;;;;;;;8.77;1.60;;;9.80;99.90;;;;;;5078815;28;20042;-72
2023/03/14 00:49:17;;;;;;;4.40;1.10;;;9.90;99.90;;;;;;5069543;28;20047;-72
2023/03/14 00:51:42;;;;;;;5.88;1.17;;;9.90;99.90;;;;;;5079740;28;20024;-72
2023/03/14 00:54:08;;;;;;;7.38;1.17;;;9.90;99.90;;;;;;5051025;28;20543;-72
2023/03/14 00:56:34;;;;;;;4.53;1.42;;;10.00;99.90;;;;;;5075828;28;20051;-72
2023/03/14 00:58:59;;;;;;;9.35;1.35;;;10.00;99.90;;;;;;5072593;28;20071;-72
2023/03/14 01:01:25;;;;;;;7.45;1.50;;;10.00;99.90;;;;;;5078661;28;20063;-72
2023/03/14 01:03:52;;;;;;;8.65;1.15;;;10.00;99.90;;;;;;5055405;28;20036;-72
2023/03/14 01:06:21;;;;;;;6.45;1.77;;;9.90;99.90;;;;;;5073094;28;20033;-72
2023/03/14 01:08:47;;;;;;;6.50;1.42;;;9.90;99.90;;;;;;5077341;28;20043;-72
2023/03/14 01:11:37;;;;;;;9.07;1.30;;;9.90;99.90;;;;;;5052283;28;20052;-72
2023/03/14 01:14:03;;;;;;;5.22;1.10;;;9.90;99.90;;;;;;5078517;28;20185;-72
2023/03/14 01:16:32;;;;;;;5.07;1.10;;;9.90;99.90;;;;;;5076157;28;20039;-72
2023/03/14 01:18:57;;;;;;;7.25;1.38;;;9.80;99.90;;;;;;5076301;28;20032;-72
2023/03/14 01:21:29;;;;;;;2.25;1.02;;;9.80;99.90;;;;;;5080259;28;20043;-72
2023/03/14 01:23:56;;;;;;;12.00;1.80;;;9.80;99.90;;;;;;5052933;28;21546;-72
2023/03/14 01:26:24;;;;;;;4.35;1.65;;;9.80;99.90;;;;;;5072375;28;20105;-72
2023/03/14 01:28:52;;;;;;;9.93;1.80;;;9.80;99.90;;;;;;5070786;28;20052;-72
2023/03/14 01:31:18;;;;;;;3.60;1.60;;;9.80;99.90;;;;;;5087107;28;20055;-72
2023/03/14 01:33:44;;;;;;;4.35;1.15;;;9.80;99.90;;;;;;5069490;28;20592;-72
2023/03/14 01:36:11;;;;;;;4.78;1.95;;;9.90;99.90;;;;;;5070547;28;20151;-72
2023/03/14 01:38:38;;;;;;;8.65;1.48;;;9.90;99.90;;;;;;5092208;28;20493;-72
2023/03/14 01:41:04;;;;;;;7.28;1.63;;;9.90;99.90;;;;;;5070300;28;20040;-72
2023/03/14 01:43:30;;;;;;;2.80;1.50;;;9.90;99.90;;;;;;5073651;28;20089;-72
2023/03/14 01:46:04;;;;;;;5.55;1.08;;;9.90;99.90;;;;;;5071285;28;20040;-72
2023/03/14 01:48:42;;;;;;;4.53;1.88;;;9.90;99.90;;;;;;5091656;28;20506;-72
2023/03/14 01:51:27;;;;;;;5.28;1.27;;;9.90;99.90;;;;;;5078287;28;20040;-72
2023/03/14 01:54:01;;;;;;;4.38;1.05;;;10.00;99.90;;;;;;5079376;28;20040;-71
2023/03/14 01:56:27;;;;;;;8.15;1.38;;;10.00;99.90;;;;;;5078199;28;20119;-72
2023/03/14 01:58:53;;;;;;;3.80;1.23;;;10.00;99.90;;;;;;5079424;28;20035;-72
2023/03/14 02:01:21;;;;;;;7.22;1.45;;;10.00;99.90;;;;;;5103069;27;20531;-72
2023/03/14 02:03:52;;;;;;;7.75;1.30;;;10.00;99.90;;;;;;5076988;28;20036;-72
2023/03/14 02:06:24;;;;;;;2.53;1.13;;;10.00;99.90;;;;;;5076507;28;20044;-71
2023/03/14 02:08:50;;;;;;;5.93;1.17;;;10.00;99.90;;;;;;5075405;28;20431;-71
2023/03/14 02:11:18;;;;;;;6.63;1.88;;;10.00;99.90;;;;;;5075363;28;20047;-72
2023/03/14 02:13:44;;;;;;;2.03;1.30;;;10.00;99.90;;;;;;5077409;28;20048;-72
2023/03/14 02:16:10;;;;;;;2.97;0.90;;;10.00;99.90;;;;;;5078315;28;20061;-72
2023/03/14 02:18:36;;;;;;;3.13;1.20;;;10.00;99.90;;;;;;5078224;28;20036;-72
2023/03/14 02:21:01;;;;;;;3.45;0.90;;;10.00;99.90;;;;;;5079861;28;20028;-72
2023/03/14 02:23:58;;;;;;;3.75;1.17;;;10.00;99.90;;;;;;5061171;28;20123;-72
2023/03/14 02:26:27;;;;;;;;;;;10.00;99.90;;;;;;5074591;28;20130;-72
2023/03/14 02:28:53;;;;;;;4.63;1.35;;;9.90;99.90;;;;;;5079753;28;19916;-72
2023/03/14 02:31:21;;;;;;;4.93;1.50;;;9.90;99.90;;;;;;5072049;28;20478;-72
2023/03/14 02:33:47;;;;;;;5.57;1.02;;;9.90;99.90;;;;;;5080925;28;20111;-72
2023/03/14 02:36:14;;;;;;;3.78;1.00;;;9.90;99.90;;;;;;5081401;28;20044;-72
2023/03/14 02:38:50;;;;;;;5.10;1.20;;;9.80;99.90;;;;;;5073849;28;20725;-72
2023/03/14 02:41:16;;;;;;;;;;;9.80;99.90;;;;;;5076419;28;20059;-72
2023/03/14 02:43:41;;;;;;;3.03;1.30;;;9.80;99.90;;;;;;5079648;28;20289;-72
2023/03/14 02:46:12;;;;;;;3.90;1.10;;;9.70;99.90;;;;;;5079668;28;20036;-72
2023/03/14 02:48:45;;;;;;;8.65;1.92;;;9.70;99.90;;;;;;5063037;28;20036;-72
2023/03/14 02:51:11;;;;;;;5.78;1.20;;;9.70;99.90;;;;;;5076074;28;20115;-72
2023/03/14 02:53:38;;;;;;;8.50;1.20;;;9.70;99.90;;;;;;5077269;28;20038;-72
2023/03/14 02:56:04;;;;;;;4.47;1.45;;;9.70;99.90;;;;;;5080662;28;20080;-72
2023/03/14 02:58:30;;;;;;;7.57;1.17;;;9.70;99.90;;;;;;5077879;28;20090;-72
2023/03/14 03:00:56;;;;;;;3.17;0.98;;;9.70;99.90;;;;;;5073884;28;20036;-72
2023/03/14 03:03:22;;;;;;;4.30;1.17;;;9.70;99.90;;;;;;5076395;28;20500;-72
2023/03/14 03:05:50;;;;;;;5.35;1.20;;;9.70;99.90;;;;;;5060169;28;20044;-72
2023/03/14 03:08:16;;;;;;;3.53;1.20;;;9.70;99.90;;;;;;5078744;28;20024;-72
2023/03/14 03:10:41;;;;;;;4.63;1.40;;;9.70;99.90;;;;;;5059639;28;20496;-72
2023/03/14 03:13:07;;;;;;;2.13;1.00;;;9.70;99.90;;;;;;5078151;28;20056;-72
2023/03/14 03:15:33;;;;;;;4.45;1.20;;;9.70;99.90;;;;;;5073677;28;20036;-72
2023/03/14 03:17:58;;;;;;;5.38;1.13;;;9.70;99.90;;;;;;5058396;28;20118;-72
2023/03/14 03:20:24;;;;;;;4.13;1.23;;;9.70;99.90;;;;;;5079258;28;20550;-72
2023/03/14 03:22:50;;;;;;;4.68;1.20;;;9.70;99.90;;;;;;5076783;28;20673;-72
2023/03/14 03:25:16;;;;;;;5.57;1.50;;;9.60;99.90;;;;;;5077146;28;20036;-72
2023/03/14 03:27:41;;;;;;;6.32;1.30;;;9.70;99.90;;;;;;5075986;28;20028;-72
2023/03/14 03:30:08;;;;;;;5.47;0.90;;;9.60;99.90;;;;;;5077435;28;20575;-73
2023/03/14 03:32:34;;;;;;;2.83;0.80;;;9.60;99.90;;;;;;5077970;28;20044;-72
2023/03/14 03:34:59;;;;;;;1.83;0.73;;;9.60;99.90;;;;;;5078947;28;20090;-72
2023/03/14 03:37:25;;;;;;;2.75;1.23;;;9.60;99.90;;;;;;5078941;28;20032;-72
2023/03/14 03:39:51;;;;;;;3.65;0.90;;;9.60;99.90;;;;;;5073662;28;20102;-72
2023/03/14 03:42:17;;;;;;;4.13;1.20;;;9.60;99.90;;;;;;5077072;28;20489;-72
2023/03/14 03:44:43;;;;;;;3.53;1.83;;;9.60;99.90;;;;;;5059567;28;20040;-72
2023/03/14 03:47:09;;;;;;;2.85;1.05;;;9.50;99.90;;;;;;5091926;28;20032;-72
2023/03/14 03:49:34;;;;;;;5.03;1.10;;;9.60;99.90;;;;;;5059856;28;20058;-72
2023/03/14 03:52:00;;;;;;;2.80;1.20;;;9.50;99.90;;;;;;5071684;28;20508;-72
2023/03/14 03:54:26;;;;;;;7.00;1.50;;;9.50;99.90;;;;;;5064069;28;20257;-72
2023/03/14 03:56:52;;;;;;;5.50;1.13;;;9.50;99.90;;;;;;5079284;28;20043;-72
2023/03/14 03:59:18;;;;;;;2.78;1.10;;;9.50;99.90;;;;;;5082271;28;20036;-72
2023/03/14 04:01:44;;;;;;;3.60;1.35;;;9.50;99.90;;;;;;5078829;28;20039;-73
2023/03/14 04:04:09;;;;;;;3.30;1.40;;;9.50;99.90;;;;;;5072827;28;20047;-72
2023/03/14 04:06:36;;;;;;;5.07;1.40;;;9.50;99.90;;;;;;5079321;28;20048;-72
2023/03/14 04:09:02;;;;;;;4.22;1.48;;;9.50;99.90;;;;;;5082979;28;20039;-72
2023/03/14 04:11:28;;;;;;;5.07;1.40;;;9.50;99.90;;;;;;5080830;28;20048;-72
2023/03/14 04:13:54;;;;;;;6.20;1.20;;;9.50;99.90;;;;;;5065538;28;20033;-72
2023/03/14 04:16:24;;;;;;;3.90;1.17;;;9.40;99.90;;;;;;5078196;28;20043;-72
2023/03/14 04:18:50;;;;;;;3.35;1.15;;;9.40;99.90;;;;;;5079132;28;20044;-72
2023/03/14 04:21:16;;;;;;;5.88;1.20;;;9.40;99.90;;;;;;5081769;28;20038;-72
2023/03/14 04:23:42;;;;;;;6.03;1.40;;;9.30;99.90;;;;;;5082351;28;20028;-72
2023/03/14 04:26:07;;;;;;;9.30;1.83;;;9.30;99.90;;;;;;5081587;28;20072;-72
2023/03/14 04:28:33;;;;;;;4.07;1.60;;;9.20;99.90;;;;;;5057972;28;20037;-72
2023/03/14 04:31:05;;;;;;;2.50;0.90;;;9.30;99.90;;;;;;5091243;28;20074;-72
2023/03/14 04:33:31;;;;;;;8.52;1.88;;;9.30;99.90;;;;;;5080972;28;20030;-72
2023/03/14 04:35:57;;;;;;;3.10;1.08;;;9.20;99.90;;;;;;5078762;28;20036;-72
2023/03/14 04:38:22;;;;;;;2.58;1.00;;;9.20;99.90;;;;;;5077731;28;20040;-72
2023/03/14 04:40:48;;;;;;;4.32;1.10;;;9.20;99.90;;;;;;5110791;27;20043;-72
2023/03/14 04:43:14;;;;;;;3.92;0.80;;;9.20;99.90;;;;;;5074546;28;20050;-72
2023/03/14 04:45:43;;;;;;;3.00;1.20;;;9.20;99.90;;;;;;5089397;28;20040;-72
2023/03/14 04:48:09;;;;;;;2.15;1.05;;;9.20;99.90;;;;;;5070120;28;20032;-72
2023/03/14 04:50:34;;;;;;;2.70;1.00;;;9.20;99.90;;;;;;5076943;28;20040;-72
2023/03/14 04:53:00;;;;;;;4.25;1.00;;;9.20;99.90;;;;;;5083332;28;20109;-72
2023/03/14 04:55:25;;;;;;;4.78;1.38;;;9.20;99.90;;;;;;5074862;28;20102;-72
2023/03/14 04:57:51;;;;;;;3.38;0.98;;;9.10;99.90;;;;;;5070822;28;20052;-72
2023/03/14 05:00:20;;;;;;;6.22;1.20;;;9.10;99.90;;;;;;5094780;28;20096;-72
2023/03/14 05:02:45;;;;;;;2.58;1.02;;;9.10;99.90;;;;;;5091029;28;20071;-72
2023/03/14 05:05:11;;;;;;;3.63;1.77;;;9.10;99.90;;;;;;5078747;28;20128;-72
2023/03/14 05:07:37;;;;;;;4.07;1.52;;;9.10;99.90;;;;;;5070409;28;20703;-72
2023/03/14 05:10:02;;;;;;;4.80;1.45;;;9.10;99.90;;;;;;5079897;28;20456;-72
2023/03/14 05:12:28;;;;;;;3.90;1.40;;;9.10;99.90;;;;;;5100493;28;20131;-72
2023/03/14 05:14:54;;;;;;;3.30;1.27;;;9.10;99.90;;;;;;5088751;28;20032;-72
2023/03/14 05:17:19;;;;;;;3.78;1.42;;;9.10;99.90;;;;;;5068534;28;20047;-72
2023/03/14 05:19:45;;;;;;;2.10;1.13;;;9.20;99.90;;;;;;5070130;28;20059;-72
2023/03/14 05:22:11;;;;;;;2.90;1.10;;;9.10;99.90;;;;;;5086559;28;20040;-72
2023/03/14 05:24:37;;;;;;;2.33;1.35;;;9.20;99.90;;;;;;5089964;28;20028;-72
2023/03/14 05:27:04;;;;;;;2.63;1.40;;;9.20;99.90;;;;;;5090886;28;20382;-72
2023/03/14 05:29:29;;;;;;;4.15;1.30;;;9.20;99.90;;;;;;5076289;28;20545;-72
2023/03/14 05:31:55;;;;;;;2.30;1.15;;;9.20;99.90;;;;;;5073395;28;20036;-72
2023/03/14 05:34:20;;;;;;;2.88;1.48;;;9.20;99.90;;;;;;5085527;28;20036;-72
2023/03/14 05:36:46;;;;;;;2.80;1.60;;;9.20;99.90;;;;;;5085563;28;20119;-72
2023/03/14 05:39:12;;;;;;;3.45;1.40;;;9.20;99.90;;;;;;5059131;28;20096;-72
2023/03/14 05:41:37;;;;;;;3.03;1.33;;;9.20;99.90;;;;;;5090281;28;20032;-72
2023/03/14 05:44:03;;;;;;;5.10;1.42;;;9.20;99.90;;;;;;5078681;28;20533;-72
2023/03/14 05:46:30;;;;;;;4.50;1.33;;;9.20;99.90;;;;;;5081610;28;20041;-72
2023/03/14 05:48:57;;;;;;;3.47;1.40;;;9.20;99.90;;;;;;5103957;28;20051;-72
2023/03/14 05:51:22;;;;;;;4.57;1.38;;;9.20;99.90;;;;;;5052096;28;20068;-72
2023/03/14 05:53:48;;;;;;;6.25;1.20;;;9.10;99.90;;;;;;5071549;28;20083;-72
2023/03/14 05:56:14;;;;;;;2.88;1.00;;;9.10;99.90;;;;;;5071620;28;20048;-72
2023/03/14 05:58:39;;;;;;;6.63;1.52;;;9.10;99.90;;;;;;5091497;28;20062;-72
2023/03/14 06:01:05;;;;;;;3.30;1.48;;;9.10;99.90;;;;;;5082499;28;20044;-72
2023/03/14 06:03:32;;;;;;;3.47;1.52;;;9.10;99.90;;;;;;5056085;28;20043;-72
2023/03/14 06:05:57;;;;;;;4.25;1.67;;;9.00;99.90;;;;;;5069044;28;20051;-71
2023/03/14 06:08:24;;;;;;;2.45;1.50;;;9.00;99.90;;;;;;5074590;28;20028;-72
2023/03/14 06:10:50;;;;;;;5.07;2.03;;;9.00;99.90;;;;;;5089601;28;20059;-71
2023/03/14 06:13:16;;;;;;;4.25;1.08;;;9.00;99.90;;;;;;5088776;28;20489;-72
2023/03/14 06:15:41;;;;;;;2.10;1.17;;;8.90;99.90;;;;;;5058362;28;20044;-72
2023/03/14 06:18:07;;;;;;;6.20;2.00;;;9.00;99.90;;;;;;5071423;28;20040;-71
2023/03/14 06:20:35;;;;;;;3.10;1.70;;;9.00;99.90;;;;;;5088741;28;20069;-71
2023/03/14 06:23:00;;;;;;;3.58;1.10;;;8.90;99.90;;;;;;5070066;28;20083;-71
2023/03/14 06:25:26;;;;;;;5.43;1.58;;;8.90;99.90;;;;;;5063439;28;20093;-72
2023/03/14 06:27:51;;;;;;;4.25;1.20;;;8.90;99.90;;;;;;5086140;28;20043;-72
2023/03/14 06:30:17;;;;;;;5.85;1.25;;;8.90;99.90;;;;;;5087657;28;20037;-72
2023/03/14 06:32:43;;;;;;;3.72;1.23;;;8.90;99.90;;;;;;5079212;28;20492;-71
2023/03/14 06:35:09;;;;;;;2.90;1.00;;;8.90;99.90;;;;;;5051380;28;20052;-72
2023/03/14 06:37:34;;;;;;;2.58;1.00;;;8.90;99.90;;;;;;5067602;28;20414;-72
2023/03/14 06:40:00;;;;;;;5.63;1.42;;;8.90;99.90;;;;;;5060104;28;20047;-71
2023/03/14 06:42:25;;;;;;;4.60;1.00;;;8.90;99.90;;;;;;5086353;28;20047;-72
2023/03/14 06:44:51;;;;;;;1.67;0.80;;;8.90;99.90;;;;;;5088370;28;20055;-71
2023/03/14 06:47:17;;;;;;;3.70;0.93;;;8.90;99.90;;;;;;5089267;28;20032;-72
2023/03/14 06:49:42;;;;;;;2.42;1.13;;;8.90;99.90;;;;;;5082653;28;20542;-71
2023/03/14 06:52:08;;;;;;;2.85;1.02;;;8.90;99.90;;;;;;5073394;28;20032;-72
2023/03/14 06:54:33;;;;;;;2.25;0.98;;;8.90;99.90;;;;;;5051490;28;20040;-72
2023/03/14 06:56:59;;;;;;;2.97;1.23;;;8.90;99.90;;;;;;5088103;28;20032;-71
2023/03/14 06:59:25;;;;;;;2.10;1.00;;;8.90;99.90;;;;;;5081095;28;20036;-72
2023/03/14 07:01:50;;;;;;;4.68;1.10;;;8.90;99.90;;;;;;5079095;28;20576;-71
2023/03/14 07:04:17;;;;;;;1.90;0.98;;;8.90;99.90;;;;;;5078272;28;20036;-72
2023/03/14 07:06:44;;;;;;;2.65;1.08;;;8.90;99.90;;;;;;5051079;28;20036;-71
2023/03/14 07:09:19;;;;;;;5.05;1.55;;;8.90;99.90;;;;;;5068850;28;20397;-71
2023/03/14 07:11:44;;;;;;;3.58;1.05;;;8.90;99.90;;;;;;5074951;28;20579;-71
2023/03/14 07:14:10;;;;;;;1.42;0.60;;;8.90;99.90;;;;;;5073395;28;20036;-72
2023/03/14 07:16:36;;;;;;;2.15;1.00;;;8.90;99.90;;;;;;5086742;28;20032;-71
2023/03/14 07:19:02;;;;;;;0.90;0.50;;;8.80;99.90;;;;;;5105870;27;20042;-71
2023/03/14 07:21:28;;;;;;;0.30;0.20;;;8.80;99.90;;;;;;5071059;28;20270;-71
2023/03/14 07:23:53;;;;;;;0.40;0.30;;;8.50;99.90;;;;;;5105093;27;20036;-71
2023/03/14 07:26:19;;;;;;;1.10;0.32;;;8.00;99.90;;;;;;5071977;28;20036;-72
2023/03/14 07:28:45;;;;;;;1.38;0.40;;;7.80;99.90;;;;;;5060466;28;20679;-72
2023/03/14 07:31:10;;;;;;;0.75;0.10;;;7.50;99.90;;;;;;5073020;28;20044;-72
2023/03/14 07:33:36;;;;;;;4.07;0.35;;;7.30;99.90;;;;;;5066603;28;20075;-72
2023/03/14 07:36:03;;;;;;;0.40;0.10;;;7.20;99.90;;;;;;5050925;28;20079;-72
2023/03/14 07:38:29;;;;;;;0.47;0.35;;;6.90;99.90;;;;;;5071158;28;20390;-72
2023/03/14 07:41:01;;;;;;;3.47;0.30;;;6.70;99.90;;;;;;5073921;28;20040;-72
2023/03/14 07:43:26;;;;;;;0.10;0.10;;;6.50;99.90;;;;;;5070408;28;20035;-72
2023/03/14 07:45:52;;;;;;;1.27;0.20;;;6.30;99.90;;;;;;5069848;28;20400;-71
2023/03/14 07:48:18;;;;;;;0.17;0.10;;;6.20;99.90;;;;;;5105008;27;20217;-72
2023/03/14 07:50:44;;;;;;;1.17;0.30;;;6.10;99.90;;;;;;5053902;28;20032;-72
2023/03/14 07:53:09;;;;;;;0.17;0.10;;;6.10;99.90;;;;;;5076387;28;20044;-71
2023/03/14 07:55:35;;;;;;;1.85;0.10;;;6.00;99.90;;;;;;5071518;28;20259;-71
2023/03/14 07:58:01;;;;;;;0.63;0.20;;;5.90;99.90;;;;;;5074686;28;20043;-72
2023/03/14 08:00:27;;;;;;;0.38;0.20;;;5.80;99.90;;;;;;5048604;28;20036;-72
2023/03/14 08:02:52;;;;;;;0.30;0.30;;;5.70;99.90;;;;;;5066799;28;20051;-72
2023/03/14 08:05:18;;;;;;;0.10;0.10;;;5.60;99.90;;;;;;5068512;28;20041;-72
2023/03/14 08:07:43;;;;;;;0.10;0.10;;;5.40;99.90;;;;;;5068436;28;20029;-72
2023/03/14 08:10:10;;;;;;;0.10;0.10;;;5.30;99.90;;;;;;5069576;28;20437;-72
2023/03/14 08:12:35;;;;;;;0.10;0.10;;;5.20;99.90;;;;;;5069662;28;20048;-72
2023/03/14 08:15:02;;;;;;;1.65;0.10;;;5.20;99.90;;;;;;5060611;28;20044;-72
2023/03/14 08:17:27;;;;;;;0.10;0.10;;;5.10;99.90;;;;;;5069150;28;20051;-72
2023/03/14 08:19:53;;;;;;;0.00;0.00;;;5.00;99.90;;;;;;5054824;28;20041;-72
2023/03/14 08:22:18;;;;;;;0.00;0.00;;;5.00;99.90;;;;;;5071642;28;20148;-72
2023/03/14 08:24:44;;;;;;;0.00;0.00;;;5.00;99.90;;;;;;5068081;28;20410;-72
2023/03/14 08:27:09;;;;;;;1.20;0.10;;;5.00;99.90;;;;;;5048744;28;20044;-71
2023/03/14 08:29:35;;;;;;;0.20;0.13;;;5.10;99.90;;;;;;5066073;28;20036;-71
2023/03/14 08:32:01;;;;;;;0.10;0.10;;;5.10;99.90;;;;;;5067224;28;20043;-71
2023/03/14 08:34:26;;;;;;;0.52;0.10;;;5.10;99.90;;;;;;5065843;28;20486;-71
2023/03/14 08:36:52;;;;;;;0.52;0.20;;;5.10;99.90;;;;;;5070977;28;20033;-72
2023/03/14 08:39:17;;;;;;;0.47;0.30;;;5.10;99.90;;;;;;5053516;28;20068;-71
2023/03/14 08:41:44;;;;;;;0.40;0.20;;;5.10;99.90;;;;;;5075700;28;20048;-72
2023/03/14 08:44:11;;;;;;;0.10;0.10;;;5.10;99.90;;;;;;5070214;28;20043;-72
2023/03/14 08:46:37;;;;;;;1.23;0.30;;;5.20;99.90;;;;;;5072201;28;20072;-71
2023/03/14 08:49:03;;;;;;;1.20;0.32;;;5.10;99.90;;;;;;5070440;28;20082;-71
2023/03/14 08:51:29;;;;;;;0.32;0.25;;;5.10;99.90;;;;;;5073027;28;20043;-72
2023/03/14 08:53:55;;;;;;;0.60;0.25;;;5.20;99.90;;;;;;5070195;28;20039;-71
2023/03/14 08:56:21;;;;;;;1.00;0.40;;;5.20;99.90;;;;;;5070583;28;20498;-72
2023/03/14 08:58:46;;;;;;;0.45;0.30;;;5.30;99.90;;;;;;5087934;28;20040;-71
2023/03/14 09:01:12;;;;;;;0.70;0.28;;;5.30;99.90;;;;;;5071333;28;20040;-72
2023/03/14 09:03:38;;;;;;;0.10;0.10;;;5.40;99.90;;;;;;5068405;28;20155;-72
2023/03/14 09:06:05;;;;;;;0.10;0.10;;;5.40;99.90;;;;;;5068326;28;20529;-71
2023/03/14 09:08:31;;;;;;;0.55;0.25;;;5.50;99.90;;;;;;5087375;28;20289;-72
2023/03/14 09:10:57;;;;;;;8.05;0.65;;;5.50;99.90;;;;;;5106506;27;20064;-72
2023/03/14 09:13:23;;;;;;;2.05;0.50;;;5.60;99.90;;;;;;5071257;28;20054;-71
2023/03/14 09:15:52;;;;;;;1.35;0.47;;;5.60;99.90;;;;;;5065264;28;20036;-72
2023/03/14 09:18:18;;;;;;;1.10;0.22;;;5.60;99.90;;;;;;5068154;28;20093;-71
2023/03/14 09:20:44;;;;;;;0.65;0.13;;;5.70;99.90;;;;;;5068276;28;20082;-71
2023/03/14 09:23:09;;;;;;;1.23;0.30;;;5.70;99.90;;;;;;5071582;28;20047;-71
2023/03/14 09:25:35;;;;;;;0.35;0.10;;;5.70;99.90;;;;;;5074024;28;20051;-71
2023/03/14 09:28:00;;;;;;;1.80;0.15;;;5.80;99.90;;;;;;5071531;28;20393;-71
2023/03/14 09:30:26;;;;;;;2.50;0.20;;;5.80;99.90;;;;;;5071344;28;20036;-71
2023/03/14 09:32:52;;;;;;;2.90;0.22;;;5.90;99.90;;;;;;5071093;28;20475;-71
2023/03/14 09:35:17;;;;;;;6.22;0.30;;;5.90;99.90;;;;;;5066372;28;20032;-72
2023/03/14 09:37:43;;;;;;;5.40;0.50;;;6.00;99.90;;;;;;5063605;28;20055;-71
2023/03/14 09:40:13;;;;;;;0.77;0.20;;;6.10;99.90;;;;;;5050857;28;20489;-74
2023/03/14 09:42:40;;;;;;;2.20;0.43;;;6.20;99.90;;;;;;5085669;28;20036;-75
2023/03/14 09:45:22;;;;;;;4.63;0.50;;;6.20;99.90;;;;;;5078438;28;20036;-75
2023/03/14 09:47:47;;;;;;;4.00;0.55;;;6.30;99.90;;;;;;5070514;28;20040;-75
2023/03/14 09:50:15;;;;;;;4.60;0.50;;;6.40;99.90;;;;;;5067785;28;20040;-74
2023/03/14 09:52:46;;;;;;;1.83;0.65;;;6.40;99.90;;;;;;5066375;28;20390;-75
2023/03/14 09:55:29;;;;;;;3.97;0.55;;;6.40;99.90;;;;;;5063316;28;20052;-71
2023/03/14 09:57:59;;;;;;;4.40;0.70;;;6.40;99.90;;;;;;5053810;28;20101;-71
2023/03/14 10:00:30;;;;;;;2.80;0.75;;;6.40;99.90;;;;;;5070031;28;20429;-71
2023/03/14 10:03:19;;;;;;;3.83;0.68;;;6.40;99.90;;;;;;5073699;28;20086;-71
2023/03/14 10:05:45;;;;;;;1.42;0.70;;;6.40;99.90;;;;;;5063916;28;20033;-71
2023/03/14 10:08:12;;;;;;;9.52;0.68;;;6.40;99.90;;;;;;5085670;28;20036;-71
2023/03/14 10:10:38;;;;;;;4.15;0.50;;;6.40;99.90;;;;;;5107047;27;20024;-71
2023/03/14 10:13:17;;;;;;;5.95;0.70;;;6.40;99.90;;;;;;5074432;28;20794;-71
2023/03/14 10:15:51;;;;;;;3.08;0.80;;;6.40;99.90;;;;;;5105054;27;20520;-71
2023/03/14 10:18:16;;;;;;;5.30;0.63;;;6.30;99.90;;;;;;5070370;28;20469;-71
2023/03/14 10:20:47;;;;;;;1.55;0.65;;;6.30;99.90;;;;;;5057127;28;20036;-72
2023/03/14 10:23:13;;;;;;;3.42;0.80;;;6.20;99.90;;;;;;5073666;28;20621;-71
2023/03/14 10:25:44;;;;;;;9.10;0.85;;;6.20;99.90;;;;;;5071345;28;20036;-72
2023/03/14 10:28:30;;;;;;;6.70;1.00;;;6.20;99.90;;;;;;5077761;28;20047;-71
2023/03/14 10:30:57;;;;;;;4.30;0.80;;;6.20;99.90;;;;;;5086698;28;20209;-71
2023/03/14 10:33:28;;;;;;;0.88;0.40;;;6.20;99.90;;;;;;5068464;28;20034;-71
2023/03/14 10:36:16;;;;;;;7.63;0.95;;;6.20;99.90;;;;;;5064447;28;20044;-71
2023/03/14 10:38:42;;;;;;;3.05;0.50;;;6.20;99.90;;;;;;5070344;28;20040;-71
2023/03/14 10:41:25;;;;;;;6.25;0.80;;;6.20;99.90;;;;;;5050258;28;20048;-71
2023/03/14 10:43:54;;;;;;;3.90;0.75;;;6.20;99.90;;;;;;5105131;27;20040;-71
2023/03/14 10:46:20;;;;;;;3.13;0.47;;;6.10;99.90;;;;;;5069284;28;20032;-72
2023/03/14 10:48:46;;;;;;;2.45;0.77;;;6.10;99.90;;;;;;5068071;28;20032;-71
2023/03/14 10:51:18;;;;;;;4.93;0.75;;;6.10;99.90;;;;;;5073097;28;20194;-71
2023/03/14 10:53:49;;;;;;;5.95;0.60;;;6.10;99.90;;;;;;5071271;28;20040;-71
2023/03/14 10:56:20;;;;;;;11.48;1.60;;;6.20;99.90;;;;;;5057748;28;20039;-71
2023/03/14 10:58:48;;;;;;;2.40;0.70;;;6.20;99.90;;;;;;5063401;28;20111;-72
2023/03/14 11:01:17;;;;;;;2.00;0.80;;;6.20;99.90;;;;;;5070207;28;20059;-74
2023/03/14 11:03:52;;;;;;;1.08;0.40;;;6.20;99.90;;;;;;5103037;27;20064;-71
2023/03/14 11:06:25;;;;;;;2.50;0.43;;;6.20;99.90;;;;;;5076465;28;20052;-71
2023/03/14 11:09:05;;;;;;;1.33;0.57;;;6.20;99.90;;;;;;5066546;28;20036;-71
2023/03/14 11:11:31;;;;;;;2.05;0.40;;;6.30;99.90;;;;;;5098312;27;20588;-71
2023/03/14 11:14:29;;;;;;;2.80;0.52;;;6.40;99.90;;;;;;5079083;28;20043;-71
2023/03/14 11:17:13;;;;;;;1.88;0.40;;;6.40;99.90;;;;;;5069556;28;20045;-71
2023/03/14 11:19:49;;;;;;;1.10;0.40;;;6.40;99.90;;;;;;5066376;28;20117;-71
2023/03/14 11:22:40;;;;;;;5.22;0.52;;;6.40;99.90;;;;;;5078626;28;20036;-71
2023/03/14 11:25:31;;;;;;;0.98;0.50;;;6.50;99.90;;;;;;5060318;28;20048;-71
2023/03/14 11:28:19;;;;;;;2.65;0.40;;;6.50;98.40;;;;;;5051267;28;20036;-71
2023/03/14 11:31:00;;;;;;;2.40;0.50;;;6.50;99.90;;;;;;5067887;28;20041;-71
2023/03/14 11:33:53;;;;;;;2.13;0.50;;;6.40;99.90;;;;;;5102829;27;20500;-71
2023/03/14 11:36:23;;;;;;;3.22;0.60;;;6.30;99.90;;;;;;5096810;28;20044;-71
2023/03/14 11:38:51;;;;;;;1.25;0.38;;;6.30;99.90;;;;;;5068210;28;20793;-71
2023/03/14 11:41:26;;;;;;;0.57;0.28;;;6.30;99.90;;;;;;5053240;28;20165;-71
2023/03/14 11:43:55;;;;;;;3.37;0.47;;;6.40;99.90;;;;;;5074433;28;20044;-71
2023/03/14 11:46:34;;;;;;;2.70;0.45;;;6.40;99.90;;;;;;5099316;27;20043;-71
2023/03/14 11:49:08;;;;;;;5.40;0.70;;;6.50;99.90;;;;;;5057532;28;20032;-71
2023/03/14 11:51:39;;;;;;;1.50;0.47;;;6.50;99.90;;;;;;5066450;28;20195;-71
2023/03/14 11:54:35;;;;;;;3.42;0.50;;;6.50;99.90;;;;;;5067228;28;20045;-71
2023/03/14 11:57:03;;;;;;;2.15;0.50;;;6.50;99.40;;;;;;5091533;28;20048;-71
2023/03/14 11:59:32;;;;;;;3.70;0.55;;;6.50;99.90;;;;;;5103227;28;20093;-71
2023/03/14 12:02:03;;;;;;;1.17;0.10;;;6.50;99.90;;;;;;5069880;28;20483;-71
2023/03/14 12:05:24;;;;;;;4.85;0.30;;;6.50;99.90;;;;;;5069321;28;20326;-71
2023/03/14 12:08:08;;;;;;;0.90;0.55;;;6.40;97.40;;;;;;4999688;28;20049;-71
2023/03/14 12:10:48;;;;;;;0.82;0.35;;;6.40;98.40;;;;;;5108223;28;20173;-74
2023/03/14 12:13:15;;;;;;;1.75;0.50;;;6.40;99.40;;;;;;5072108;28;20068;-71
2023/03/14 12:15:58;;;;;;;2.40;0.35;;;6.50;99.90;;;;;;5070498;28;20032;-71
2023/03/14 12:18:27;;;;;;;2.28;0.30;;;6.50;99.90;;;;;;5076898;28;20508;-71
2023/03/14 12:20:57;;;;;;;2.25;0.30;;;6.50;99.10;;;;;;5074452;28;20040;-71
2023/03/14 12:23:24;;;;;;;2.42;0.40;;;6.40;97.70;;;;;;5053053;28;20029;-71
2023/03/14 12:26:26;;;;;;;3.15;0.38;;;6.40;99.30;;;;;;5074083;28;20649;-74
2023/03/14 12:28:59;;;;;;;1.05;0.32;;;6.30;95.80;;;;;;5089713;27;20494;-71
2023/03/14 12:31:30;;;;;;;0.90;0.43;;;6.30;99.30;;;;;;5076497;28;20036;-71
2023/03/14 12:34:23;;;;;;;2.08;0.50;;;6.40;99.90;;;;;;5086534;28;20040;-71
2023/03/14 12:37:09;;;;;;;0.73;0.60;;;6.30;98.40;;;;;;5082162;28;20052;-71
2023/03/14 12:40:05;;;;;;;4.10;0.57;;;6.40;99.20;;;;;;5088116;28;20126;-71
2023/03/14 12:42:38;;;;;;;2.10;0.82;;;6.40;98.20;;;;;;5077791;28;20517;-71
2023/03/14 12:45:24;;;;;;;1.08;0.40;;;6.50;99.90;;;;;;5053849;28;20071;-71
2023/03/14 12:48:03;;;;;;;1.58;0.50;;;6.50;95.30;;;;;;5084229;28;20178;-71
2023/03/14 12:50:34;;;;;;;1.23;0.45;;;6.50;98.80;;;;;;5072000;28;20474;-71
2023/03/14 12:53:18;;;;;;;1.95;0.47;;;6.50;99.90;;;;;;5087352;28;20486;-71
2023/03/14 12:55:48;;;;;;;1.08;0.30;;;6.50;95.30;;;;;;5091247;28;20048;-71
2023/03/14 12:58:38;;;;;;;0.35;0.22;;;6.50;98.50;;;;;;5070675;28;22541;-74
2023/03/14 13:01:07;;;;;;;1.58;0.30;;;6.50;97.70;;;;;;5077420;28;20405;-71
2023/03/14 13:04:03;;;;;;;0.38;0.20;;;6.60;98.70;;;;;;5105092;28;20374;-71
2023/03/14 13:06:53;;;;;;;1.88;0.38;;;6.60;99.40;;;;;;5078563;28;20048;-71